Terminal Aerodrome Forecast
Issued by NWS

Home | Current Version | Previous Version | Graphics & Text | Print | Product List | Glossary On
Versions: 1 2 3 4 5 6 7 8 9 10 11 12 13 14 15
709
FTUS45 KGGW 191733 AAA
TAFSDY
TAF AMD
KSDY 191733Z 1918/2018 20008KT P6SM FEW250
     FM200300 26006KT P6SM FEW080 BKN200
     FM201200 27004KT P6SM BKN050 BKN200=

USA.gov is the U.S. government's official web portal to all federal, state and local government web resources and services.